createdAt,value
2022-08-11T00:01:13.946Z,4.03
2022-08-11T00:03:48.781Z,4.00
2022-08-11T00:06:25.673Z,4.13
2022-08-11T00:08:55.163Z,4.40
2022-08-11T00:11:35.106Z,3.67
2022-08-11T00:14:04.943Z,4.17
2022-08-11T00:16:34.226Z,4.43
2022-08-11T00:19:04.145Z,4.40
2022-08-11T00:22:04.561Z,4.47
2022-08-11T00:24:34.623Z,4.23
2022-08-11T00:27:34.095Z,4.00
2022-08-11T00:30:02.474Z,3.90
2022-08-11T00:32:31.946Z,4.73
2022-08-11T00:35:53.848Z,4.30
2022-08-11T00:37:52.082Z,4.53
2022-08-11T00:40:27.127Z,4.20
2022-08-11T00:43:10.777Z,4.43
2022-08-11T00:46:07.583Z,4.50
2022-08-11T00:48:46.501Z,4.43
2022-08-11T00:51:27.005Z,4.53
2022-08-11T00:54:45.216Z,4.40
2022-08-11T00:57:39.159Z,4.77
2022-08-11T01:00:17.508Z,4.33
2022-08-11T01:03:09.891Z,4.50
2022-08-11T01:05:57.773Z,4.60
2022-08-11T01:08:59.646Z,4.07
2022-08-11T01:11:56.386Z,3.77
2022-08-11T01:14:41.838Z,4.37
2022-08-11T01:17:48.926Z,4.43
2022-08-11T01:20:48.669Z,4.70
2022-08-11T01:23:57.158Z,4.77
2022-08-11T01:27:19.314Z,5.17
2022-08-11T01:30:24.024Z,5.33
2022-08-11T01:33:21.776Z,4.80
2022-08-11T01:36:25.915Z,4.97
2022-08-11T01:39:19.876Z,4.67
2022-08-11T01:42:36.203Z,5.10
2022-08-11T01:45:12.796Z,4.97
2022-08-11T01:47:54.811Z,4.87
2022-08-11T01:50:32.674Z,5.50
2022-08-11T01:53:11.507Z,5.03
2022-08-11T01:55:48.782Z,5.07
2022-08-11T01:58:21.650Z,5.00
2022-08-11T02:01:28.857Z,5.97
2022-08-11T02:04:11.280Z,4.93
2022-08-11T02:06:58.565Z,5.33
2022-08-11T02:09:49.597Z,5.30
2022-08-11T02:12:38.127Z,5.30
2022-08-11T02:15:16.739Z,5.57
2022-08-11T02:17:55.659Z,5.40
2022-08-11T02:20:44.897Z,5.50
2022-08-11T02:23:59.651Z,5.57
2022-08-11T02:26:37.743Z,6.53
2022-08-11T02:29:17.035Z,6.10
2022-08-11T02:32:28.740Z,6.20
2022-08-11T02:35:05.868Z,6.00
2022-08-11T02:37:47.158Z,5.67
2022-08-11T02:40:26.224Z,5.60
2022-08-11T02:43:10.351Z,5.80
2022-08-11T02:45:54.689Z,6.33
2022-08-11T02:48:52.066Z,6.87
2022-08-11T02:51:31.481Z,5.83
2022-08-11T02:54:10.619Z,5.87
2022-08-11T02:56:46.664Z,5.90
2022-08-11T02:59:43.838Z,5.77
2022-08-11T03:02:19.308Z,5.90
2022-08-11T03:05:00.365Z,5.80
2022-08-11T03:07:35.170Z,5.80
2022-08-11T03:10:11.484Z,5.43
2022-08-11T03:13:03.292Z,5.20
2022-08-11T03:16:06.141Z,4.80
2022-08-11T03:18:42.512Z,5.67
2022-08-11T03:22:01.563Z,6.27
2022-08-11T03:24:26.889Z,5.53
2022-08-11T03:27:11.179Z,5.20
2022-08-11T03:29:50.260Z,6.53
2022-08-11T03:32:30.033Z,6.00
2022-08-11T03:35:01.521Z,6.03
2022-08-11T03:37:52.095Z,5.67
2022-08-11T03:40:54.644Z,5.63
2022-08-11T03:43:58.123Z,5.83
2022-08-11T03:46:39.758Z,5.50
2022-08-11T03:49:24.742Z,5.50
2022-08-11T03:51:57.780Z,5.30
2022-08-11T03:54:34.841Z,5.43
2022-08-11T03:57:35.002Z,5.50
2022-08-11T04:00:22.056Z,5.37
2022-08-11T04:03:11.026Z,5.70
2022-08-11T04:06:28.826Z,5.80
2022-08-11T04:09:38.325Z,5.37
2022-08-11T04:12:35.954Z,5.00
2022-08-11T04:16:11.766Z,5.70
2022-08-11T04:19:31.218Z,6.30
2022-08-11T04:22:20.231Z,5.43
2022-08-11T04:25:17.337Z,6.40
2022-08-11T04:28:29.113Z,6.10
2022-08-11T04:31:44.196Z,5.93
2022-08-11T04:34:37.519Z,6.30
2022-08-11T04:37:35.595Z,6.50
2022-08-11T04:40:45.419Z,7.50
2022-08-11T04:44:07.010Z,6.80
2022-08-11T04:48:03.741Z,6.77
2022-08-11T04:51:15.994Z,6.80
2022-08-11T04:54:31.561Z,6.13
2022-08-11T04:57:30.905Z,5.90
2022-08-11T05:00:24.403Z,5.70
2022-08-11T05:03:19.035Z,7.00
2022-08-11T05:06:11.237Z,6.70
2022-08-11T05:09:03.996Z,6.60
2022-08-11T05:12:16.677Z,5.70
2022-08-11T05:15:08.476Z,5.40
2022-08-11T05:17:59.351Z,6.33
2022-08-11T05:20:46.377Z,6.87
2022-08-11T05:23:34.160Z,6.00
2022-08-11T05:26:46.017Z,5.90
2022-08-11T05:29:55.659Z,5.60
2022-08-11T05:32:42.497Z,5.93
2022-08-11T05:35:18.528Z,5.67
2022-08-11T05:38:20.012Z,5.80
2022-08-11T05:41:10.641Z,5.67
2022-08-11T05:44:21.413Z,7.20
2022-08-11T05:47:09.320Z,5.90
2022-08-11T05:49:58.117Z,5.93
2022-08-11T05:52:46.987Z,6.37
2022-08-11T05:55:35.801Z,5.87
2022-08-11T05:58:23.017Z,5.60
2022-08-11T06:00:54.149Z,5.57
2022-08-11T06:03:27.404Z,5.57
2022-08-11T06:05:57.566Z,4.93
2022-08-11T06:08:31.273Z,5.00
2022-08-11T06:11:04.915Z,5.30
2022-08-11T06:13:33.971Z,5.90
2022-08-11T06:16:06.982Z,5.20
2022-08-11T06:18:36.411Z,5.53
2022-08-11T06:21:12.515Z,4.90
2022-08-11T06:23:42.756Z,5.60
2022-08-11T06:26:11.835Z,5.03
2022-08-11T06:28:42.413Z,5.83
2022-08-11T06:31:16.561Z,5.67
2022-08-11T06:33:57.455Z,5.67
2022-08-11T06:36:50.143Z,5.23
2022-08-11T06:39:25.685Z,5.67
2022-08-11T06:42:00.596Z,6.00
2022-08-11T06:44:32.980Z,5.67
2022-08-11T06:47:12.505Z,5.63
2022-08-11T06:50:03.849Z,6.30
2022-08-11T06:52:36.411Z,5.47
2022-08-11T06:55:56.642Z,5.53
2022-08-11T06:58:16.573Z,5.50
2022-08-11T07:00:47.319Z,6.17
2022-08-11T07:03:20.890Z,5.97
2022-08-11T07:05:56.034Z,5.20
2022-08-11T07:09:29.717Z,5.63
2022-08-11T07:12:52.766Z,5.13
2022-08-11T07:16:09.058Z,4.97
2022-08-11T07:18:50.468Z,5.20
2022-08-11T07:22:02.746Z,5.13
2022-08-11T07:25:02.038Z,5.13
2022-08-11T07:27:55.052Z,4.70
2022-08-11T07:30:26.289Z,5.23
2022-08-11T07:32:56.309Z,5.50
2022-08-11T07:35:32.726Z,5.60
2022-08-11T07:38:07.242Z,5.53
2022-08-11T07:40:37.687Z,5.53
2022-08-11T07:43:08.116Z,5.47
2022-08-11T07:45:54.404Z,5.00
2022-08-11T07:48:40.535Z,4.70
2022-08-11T07:51:28.400Z,5.20
2022-08-11T07:54:03.025Z,5.30
2022-08-11T07:57:07.368Z,4.90
2022-08-11T08:00:03.820Z,5.83
2022-08-11T08:02:49.842Z,5.30
2022-08-11T08:05:37.448Z,6.90
2022-08-11T08:08:27.324Z,5.47
2022-08-11T08:11:15.337Z,5.03
2022-08-11T08:14:02.193Z,4.83
2022-08-11T08:16:49.237Z,5.60
2022-08-11T08:19:20.814Z,5.77
2022-08-11T08:21:49.852Z,5.10
2022-08-11T08:24:21.448Z,5.47
2022-08-11T08:27:00.007Z,5.10
2022-08-11T08:29:48.464Z,5.13
2022-08-11T08:32:18.689Z,4.17
2022-08-11T08:34:48.231Z,4.47
2022-08-11T08:37:45.506Z,5.17
2022-08-11T08:40:12.033Z,5.53
2022-08-11T08:42:48.009Z,4.70
2022-08-11T08:45:18.661Z,4.97
2022-08-11T08:47:53.214Z,5.10
2022-08-11T08:50:46.977Z,5.43
2022-08-11T08:53:21.984Z,4.80
2022-08-11T08:55:57.369Z,4.90
2022-08-11T08:58:26.802Z,4.77
2022-08-11T09:00:58.117Z,5.60
2022-08-11T09:04:06.788Z,4.57
2022-08-11T09:06:17.871Z,4.80
2022-08-11T09:08:49.690Z,4.50
2022-08-11T09:11:42.625Z,4.43
2022-08-11T09:14:15.044Z,4.57
2022-08-11T09:16:45.071Z,4.57
2022-08-11T09:19:18.041Z,4.60
2022-08-11T09:22:08.845Z,4.50
2022-08-11T09:24:58.075Z,3.97
2022-08-11T09:27:28.678Z,4.77
2022-08-11T09:29:57.498Z,4.40
2022-08-11T09:32:29.380Z,3.87
2022-08-11T09:34:58.614Z,4.10
2022-08-11T09:37:55.270Z,4.63
2022-08-11T09:40:33.712Z,4.07
2022-08-11T09:43:23.857Z,4.67
2022-08-11T09:45:54.873Z,4.63
2022-08-11T09:48:26.573Z,4.10
2022-08-11T09:50:57.044Z,4.57
2022-08-11T09:53:36.433Z,4.03
2022-08-11T09:56:22.372Z,4.57
2022-08-11T09:58:52.853Z,4.57
2022-08-11T10:01:28.257Z,3.70
2022-08-11T10:04:05.251Z,4.03
2022-08-11T10:06:54.492Z,3.90
2022-08-11T10:09:26.083Z,4.20
2022-08-11T10:11:58.800Z,4.33
2022-08-11T10:14:47.100Z,4.27
2022-08-11T10:17:17.247Z,4.30
2022-08-11T10:20:03.984Z,4.37
2022-08-11T10:22:51.033Z,4.17
2022-08-11T10:25:37.236Z,4.10
2022-08-11T10:28:16.779Z,4.37
2022-08-11T10:31:16.404Z,4.27
2022-08-11T10:34:04.981Z,4.00
2022-08-11T10:36:40.297Z,4.20
2022-08-11T10:39:08.627Z,4.43
2022-08-11T10:42:08.701Z,5.00
2022-08-11T10:44:41.494Z,4.80
2022-08-11T10:47:31.826Z,4.53
2022-08-11T10:50:19.396Z,4.43
2022-08-11T10:53:08.218Z,4.10
2022-08-11T10:55:58.753Z,4.00
2022-08-11T10:58:45.432Z,4.00
2022-08-11T11:01:14.926Z,4.23
2022-08-11T11:03:45.908Z,4.53
2022-08-11T11:06:29.410Z,4.17
2022-08-11T11:09:04.473Z,4.33
2022-08-11T11:11:55.956Z,4.10
2022-08-11T11:14:50.814Z,4.90
2022-08-11T11:17:46.880Z,4.10
2022-08-11T11:20:34.473Z,4.30
2022-08-11T11:23:11.471Z,4.47
2022-08-11T11:26:11.306Z,4.13
2022-08-11T11:29:04.285Z,4.43
2022-08-11T11:31:47.281Z,4.60
2022-08-11T11:34:24.973Z,4.50
2022-08-11T11:36:58.794Z,4.10
2022-08-11T11:39:31.231Z,4.50
2022-08-11T11:42:03.307Z,4.60
2022-08-11T11:44:32.104Z,3.90
2022-08-11T11:47:01.830Z,4.10
2022-08-11T11:49:32.481Z,3.70
2022-08-11T11:52:02.778Z,4.33
2022-08-11T11:54:33.933Z,4.20
2022-08-11T11:57:25.915Z,4.33
2022-08-11T12:00:13.762Z,4.47
2022-08-11T12:02:43.163Z,4.67
2022-08-11T12:05:12.152Z,4.43
2022-08-11T12:08:10.601Z,4.17
2022-08-11T12:10:46.298Z,5.17
2022-08-11T12:13:32.569Z,4.30
2022-08-11T12:16:31.824Z,4.27
2022-08-11T12:18:55.417Z,4.20
2022-08-11T12:21:25.125Z,4.20
2022-08-11T12:24:16.148Z,4.43
2022-08-11T12:27:16.550Z,4.47
2022-08-11T12:29:54.485Z,4.30
2022-08-11T12:32:26.107Z,4.73
2022-08-11T12:34:57.357Z,4.87
2022-08-11T12:37:31.698Z,4.73
2022-08-11T12:40:43.207Z,4.57
2022-08-11T12:43:37.225Z,3.97
2022-08-11T12:46:09.064Z,4.23
2022-08-11T12:49:02.555Z,4.50
2022-08-11T12:52:11.190Z,4.47
2022-08-11T12:55:00.030Z,4.53
2022-08-11T12:57:50.890Z,4.27
2022-08-11T13:00:38.291Z,4.53
2022-08-11T13:03:26.909Z,4.70
2022-08-11T13:05:58.871Z,4.80
2022-08-11T13:08:29.643Z,5.20
2022-08-11T13:11:18.943Z,4.47
2022-08-11T13:13:55.968Z,4.67
2022-08-11T13:16:29.801Z,4.20
2022-08-11T13:19:01.316Z,4.23
2022-08-11T13:21:31.053Z,4.43
2022-08-11T13:24:03.051Z,5.03
2022-08-11T13:26:48.488Z,4.97
2022-08-11T13:29:26.713Z,4.93
2022-08-11T13:31:58.319Z,4.60
2022-08-11T13:34:28.356Z,4.80
2022-08-11T13:36:58.321Z,4.30
2022-08-11T13:39:29.713Z,4.30
2022-08-11T13:42:00.695Z,4.10
2022-08-11T13:44:32.902Z,4.37
2022-08-11T13:47:04.560Z,4.60
2022-08-11T13:49:35.103Z,4.47
2022-08-11T13:52:05.771Z,4.80
2022-08-11T13:54:38.568Z,4.83
2022-08-11T13:58:06.693Z,4.67
2022-08-11T14:00:12.188Z,4.43
2022-08-11T14:02:53.294Z,4.37
2022-08-11T14:05:26.944Z,4.77
2022-08-11T14:08:00.668Z,4.40
2022-08-11T14:10:33.009Z,4.67
2022-08-11T14:13:22.136Z,5.00
2022-08-11T14:15:54.615Z,4.47
2022-08-11T14:18:27.300Z,4.50
2022-08-11T14:21:14.592Z,4.80
2022-08-11T14:23:45.625Z,4.20
2022-08-11T14:26:27.066Z,4.50
2022-08-11T14:28:58.092Z,4.43
2022-08-11T14:31:32.086Z,4.60
2022-08-11T14:34:03.515Z,4.53
2022-08-11T14:36:35.151Z,4.93
2022-08-11T14:39:08.174Z,4.40
2022-08-11T14:42:12.569Z,4.87
2022-08-11T14:45:01.965Z,4.60
2022-08-11T14:47:35.128Z,4.47
2022-08-11T14:50:11.606Z,4.60
2022-08-11T14:52:45.900Z,4.90
2022-08-11T14:55:32.709Z,4.40
2022-08-11T14:58:03.301Z,4.40
2022-08-11T15:00:35.317Z,5.20
2022-08-11T15:03:12.959Z,4.40
2022-08-11T15:05:56.319Z,4.67
2022-08-11T15:08:42.761Z,4.30
2022-08-11T15:11:26.826Z,4.13
2022-08-11T15:13:56.391Z,4.33
2022-08-11T15:16:43.567Z,4.70
2022-08-11T15:19:14.354Z,4.80
2022-08-11T15:22:00.596Z,4.77
2022-08-11T15:24:31.220Z,4.70
2022-08-11T15:27:19.994Z,4.70
2022-08-11T15:30:07.972Z,4.57
2022-08-11T15:32:54.158Z,4.87
2022-08-11T15:35:42.770Z,4.70
2022-08-11T15:38:14.076Z,6.40
2022-08-11T15:41:02.122Z,7.70
2022-08-11T15:43:57.351Z,5.80
2022-08-11T15:46:32.981Z,5.83
2022-08-11T15:49:04.169Z,5.27
2022-08-11T15:51:38.710Z,4.73
2022-08-11T15:54:09.699Z,4.37
2022-08-11T15:56:41.219Z,5.20
2022-08-11T15:59:43.048Z,4.73
2022-08-11T16:02:34.484Z,4.87
2022-08-11T16:05:11.659Z,4.87
2022-08-11T16:07:43.285Z,4.40
2022-08-11T16:10:19.361Z,4.50
2022-08-11T16:13:22.291Z,4.57
2022-08-11T16:16:12.208Z,5.20
2022-08-11T16:18:51.587Z,4.27
2022-08-11T16:21:26.016Z,4.70
2022-08-11T16:27:04.127Z,4.77
2022-08-11T16:27:10.079Z,4.53
2022-08-11T16:29:45.752Z,4.97
2022-08-11T16:32:22.207Z,4.60
2022-08-11T16:35:16.503Z,5.13
2022-08-11T16:38:03.241Z,5.27
2022-08-11T16:40:34.946Z,5.50
2022-08-11T16:43:24.101Z,4.50
2022-08-11T16:46:13.073Z,5.40
2022-08-11T16:48:44.945Z,5.40
2022-08-11T16:51:14.555Z,4.20
2022-08-11T16:54:03.541Z,5.23
2022-08-11T16:56:38.291Z,5.40
2022-08-11T16:59:15.902Z,5.03
2022-08-11T17:01:48.728Z,4.93
2022-08-11T17:04:43.278Z,4.97
2022-08-11T17:07:42.287Z,4.80
2022-08-11T17:10:51.172Z,5.27
2022-08-11T17:13:30.608Z,4.97
2022-08-11T17:16:08.346Z,5.23
2022-08-11T17:18:43.578Z,5.17
2022-08-11T17:21:16.226Z,5.03
2022-08-11T17:24:05.094Z,5.27
2022-08-11T17:26:57.178Z,6.30
2022-08-11T17:29:30.256Z,5.63
2022-08-11T17:32:16.434Z,6.23
2022-08-11T17:35:07.435Z,5.77
2022-08-11T17:37:37.852Z,5.63
2022-08-11T17:40:12.591Z,6.50
2022-08-11T17:43:00.512Z,6.10
2022-08-11T17:45:55.919Z,5.73
2022-08-11T17:48:27.533Z,4.83
2022-08-11T17:50:59.251Z,5.40
2022-08-11T17:54:24.065Z,5.10
2022-08-11T17:57:20.126Z,4.70
2022-08-11T17:59:54.297Z,5.43
2022-08-11T18:02:47.209Z,5.13
2022-08-11T18:05:19.807Z,5.70
2022-08-11T18:08:08.085Z,5.13
2022-08-11T18:10:55.024Z,4.93
2022-08-11T18:13:42.888Z,5.23
2022-08-11T18:16:29.448Z,5.60
2022-08-11T18:19:16.496Z,6.00
2022-08-11T18:22:14.833Z,5.53
2022-08-11T18:25:12.267Z,5.10
2022-08-11T18:28:02.149Z,5.63
2022-08-11T18:30:53.831Z,5.30
2022-08-11T18:34:06.889Z,4.60
2022-08-11T18:36:59.347Z,4.63
2022-08-11T18:39:54.655Z,5.10
2022-08-11T18:42:43.994Z,4.90
2022-08-11T18:45:39.990Z,5.07
2022-08-11T18:48:37.396Z,4.70
2022-08-11T18:51:31.287Z,6.00
2022-08-11T18:54:28.545Z,5.87
2022-08-11T18:57:16.949Z,4.60
2022-08-11T19:00:05.172Z,5.30
2022-08-11T19:02:54.121Z,4.53
2022-08-11T19:06:32.174Z,4.93
2022-08-11T19:08:50.095Z,4.73
2022-08-11T19:11:42.865Z,5.20
2022-08-11T19:14:31.297Z,5.70
2022-08-11T19:17:44.172Z,4.80
2022-08-11T19:20:29.348Z,4.50
2022-08-11T19:23:16.538Z,5.63
2022-08-11T19:26:03.840Z,5.37
2022-08-11T19:28:53.350Z,5.10
2022-08-11T19:31:44.441Z,5.07
2022-08-11T19:34:32.025Z,4.87
2022-08-11T19:37:22.006Z,5.43
2022-08-11T19:40:11.550Z,5.20
2022-08-11T19:42:59.174Z,5.70
2022-08-11T19:45:51.197Z,4.93
2022-08-11T19:48:40.266Z,5.07
2022-08-11T19:51:27.482Z,5.40
2022-08-11T19:54:14.292Z,5.67
2022-08-11T19:57:02.803Z,5.27
2022-08-11T19:59:49.474Z,5.57
2022-08-11T20:02:36.386Z,5.27
2022-08-11T20:05:22.842Z,5.43
2022-08-11T20:08:09.514Z,4.97
2022-08-11T20:10:55.741Z,5.00
2022-08-11T20:13:44.928Z,5.60
2022-08-11T20:16:33.037Z,5.40
2022-08-11T20:19:26.271Z,5.00
2022-08-11T20:22:27.335Z,4.80
2022-08-11T20:25:14.324Z,4.73
2022-08-11T20:28:00.984Z,5.40
2022-08-11T20:30:48.679Z,5.20
2022-08-11T20:33:39.426Z,4.77
2022-08-11T20:36:27.576Z,5.10
2022-08-11T20:39:15.406Z,4.83
2022-08-11T20:42:01.357Z,4.80
2022-08-11T20:44:48.379Z,5.00
2022-08-11T20:47:56.259Z,5.63
2022-08-11T20:50:45.888Z,5.20
2022-08-11T20:53:36.147Z,4.60
2022-08-11T20:56:28.698Z,5.00
2022-08-11T20:59:18.445Z,4.87
2022-08-11T21:02:05.537Z,5.20
2022-08-11T21:04:56.717Z,5.10
2022-08-11T21:07:45.853Z,4.60
2022-08-11T21:10:46.770Z,5.47
2022-08-11T21:13:37.022Z,5.73
2022-08-11T21:16:27.206Z,4.57
2022-08-11T21:20:00.604Z,5.20
2022-08-11T21:22:28.565Z,4.80
2022-08-11T21:25:16.589Z,4.80
2022-08-11T21:28:06.637Z,4.60
2022-08-11T21:30:57.524Z,4.33
2022-08-11T21:33:46.086Z,5.03
2022-08-11T21:36:33.796Z,5.07
2022-08-11T21:39:24.999Z,5.23
2022-08-11T21:42:12.660Z,4.87
2022-08-11T21:45:01.862Z,4.67
2022-08-11T21:47:49.507Z,4.70
2022-08-11T21:50:46.701Z,5.10
2022-08-11T21:53:33.204Z,5.00
2022-08-11T21:56:20.027Z,5.60
2022-08-11T21:59:08.858Z,5.10
2022-08-11T22:01:56.638Z,5.13
2022-08-11T22:04:44.091Z,4.90
2022-08-11T22:07:30.838Z,5.00
2022-08-11T22:10:41.562Z,5.17
2022-08-11T22:13:25.976Z,5.03
2022-08-11T22:16:11.946Z,5.20
2022-08-11T22:19:01.197Z,4.83
2022-08-11T22:22:03.816Z,5.27
2022-08-11T22:24:51.696Z,5.17
2022-08-11T22:27:37.251Z,5.03
2022-08-11T22:30:24.934Z,5.17
2022-08-11T22:33:11.712Z,5.20
2022-08-11T22:36:00.372Z,5.00
2022-08-11T22:38:47.014Z,5.10
2022-08-11T22:41:32.832Z,4.93
2022-08-11T22:44:18.191Z,6.53
2022-08-11T22:47:04.275Z,4.80
2022-08-11T22:49:57.883Z,5.10
2022-08-11T22:52:47.696Z,4.80
2022-08-11T22:55:33.655Z,5.20
2022-08-11T22:58:20.728Z,5.20
2022-08-11T23:01:07.297Z,4.83
2022-08-11T23:03:53.626Z,5.40
2022-08-11T23:06:40.114Z,5.67
2022-08-11T23:09:28.299Z,5.47
2022-08-11T23:12:14.522Z,5.50
2022-08-11T23:15:00.630Z,5.40
2022-08-11T23:17:46.730Z,6.30
2022-08-11T23:20:41.271Z,5.73
2022-08-11T23:23:36.556Z,5.13
2022-08-11T23:26:24.696Z,5.87
2022-08-11T23:29:11.690Z,5.50
2022-08-11T23:31:57.803Z,5.23
2022-08-11T23:35:04.062Z,4.97
2022-08-11T23:37:54.079Z,5.43
2022-08-11T23:40:39.891Z,4.87
2022-08-11T23:43:27.089Z,5.20
2022-08-11T23:46:12.702Z,5.43
2022-08-11T23:49:00.403Z,5.43
2022-08-11T23:51:47.562Z,4.67
2022-08-11T23:54:37.324Z,5.00
2022-08-11T23:57:23.930Z,5.27
